Welcome to Northern Hawkes Bay. New Zealand.
PWS Header
      nz Flag



Hit Counter


W3C Valid W3C Valid logo


    Wairoa

Select any of the Stations below to visit their websites.










Historic Data from Weather Underground
Select the location of interest below. Wairoa is the default. Please have patience, this Data is slow to load in.
Northern Hawkes Bay Historical Data
Daily Summary for April 23, 2017 Units:  English    Metric   Both
« Previous Day
Next Day »
Daily Weekly Monthly Yearly Custom
  High: Low: Average:
Temperature: 72.5 °F 44.1 °F 55.6 °F
Dew Point: 58.3 °F 43.5 °F 51.1 °F
Humidity: 99% 58% 87%
Wind Speed: 6.9mph 0mph 1.9mph
Wind Gust: 10.7mph - -
Wind- - SW
Pressure: 30.4 in 30.1 in -
Precipitation: 0 in    
Historical Graphs
 
 
Tabular Data for April 23, 2017
Time Temperature Dew Point Pressure Wind Wind Speed Wind Gust Humidity Rainfall Rate (Hourly) solar
00:02 47.1 °F 46.9 °F 30.4 in Calm   5.4 mph 99% 0 in 0 W/m2
00:07 47.1 °F 46.9 °F 30.4 in Calm   3.1 mph 99% 0 in 0 W/m2
00:12 46.9 °F 46.8 °F 30.4 in Calm     99% 0 in 0 W/m2
00:17 46.9 °F 46.8 °F 30.4 in Calm   3.8 mph 99% 0 in 0 W/m2
00:22 46.8 °F 46.6 °F 30.4 in Calm   3.8 mph 99% 0 in 0 W/m2
00:27 46.6 °F 46.2 °F 30.4 in North 2.2 mph 3.8 mph 99% 0 in 0 W/m2
00:32 46.6 °F 46.2 °F 30.4 in Calm   4.5 mph 99% 0 in 0 W/m2
00:37 46.6 °F 46.2 °F 30.4 in Calm   4.5 mph 99% 0 in 0 W/m2
00:42 46.6 °F 46.2 °F 30.4 in Calm   3.8 mph 99% 0 in 0 W/m2
00:47 46.6 °F 46.2 °F 30.4 in North 1.6 mph 3.8 mph 99% 0 in 0 W/m2
00:52 46.4 °F 46 °F 30.4 in Calm   3.1 mph 99% 0 in 0 W/m2
00:57 46.2 °F 45.3 °F 30.4 in Calm   3.1 mph 97% 0 in 0 W/m2
01:02 46 °F 45.1 °F 30.4 in Calm     97% 0 in 0 W/m2
01:07 46.2 °F 45.3 °F 30.4 in Calm     97% 0 in 0 W/m2
01:12 46.2 °F 45.3 °F 30.4 in Calm     97% 0 in 0 W/m2
01:17 46.2 °F 45.3 °F 30.4 in Calm     97% 0 in 0 W/m2
01:22 46.2 °F 45.3 °F 30.4 in Calm     97% 0 in 0 W/m2
01:27 46.2 °F 45.3 °F 30.4 in NNW 2.2 mph 3.8 mph 97% 0 in 0 W/m2
01:32 46.2 °F 45.3 °F 30.4 in Calm   3.8 mph 97% 0 in 0 W/m2
01:37 46.2 °F 45.3 °F 30.4 in NW 2.2 mph 3.8 mph 97% 0 in 0 W/m2
01:42 46.2 °F 45.3 °F 30.4 in NW 2.2 mph 3.8 mph 97% 0 in 0 W/m2
01:47 46.4 °F 46 °F 30.4 in NW 1.6 mph 4.5 mph 99% 0 in 0 W/m2
01:52 46.6 °F 46.2 °F 30.4 in NNW 0.7 mph 4.5 mph 99% 0 in 0 W/m2
01:57 46.6 °F 46.2 °F 30.4 in Calm   4.5 mph 99% 0 in 0 W/m2
02:02 46.8 °F 46.6 °F 30.4 in North 2.2 mph 3.8 mph 99% 0 in 0 W/m2
02:07 47.1 °F 46.9 °F 30.4 in North 3.1 mph 6 mph 99% 0 in 0 W/m2
02:12 47.3 °F 46.9 °F 30.4 in Calm   6 mph 99% 0 in 0 W/m2
02:17 47.1 °F 46.9 °F 30.4 in Calm   4.5 mph 99% 0 in 0 W/m2
02:22 47.1 °F 46.9 °F 30.4 in Calm     99% 0 in 0 W/m2
02:27 47.1 °F 46.9 °F 30.4 in Calm   0.7 mph 99% 0 in 0 W/m2
02:32 46.8 °F 46.6 °F 30.4 in Calm   2.2 mph 99% 0 in 0 W/m2
02:37 46.8 °F 46.6 °F 30.4 in NNW 2.2 mph 4.5 mph 99% 0 in 0 W/m2
02:42 47.1 °F 46.9 °F 30.4 in NNW 3.1 mph 5.4 mph 99% 0 in 0 W/m2
02:47 47.1 °F 46.9 °F 30.4 in North 3.1 mph 5.4 mph 99% 0 in 0 W/m2
02:52 47.3 °F 46.9 °F 30.4 in North 3.1 mph 6.9 mph 99% 0 in 0 W/m2
02:57 47.3 °F 46.9 °F 30.4 in North 1.6 mph 6.9 mph 99% 0 in 0 W/m2
03:02 47.1 °F 46.9 °F 30.4 in Calm   6 mph 99% 0 in 0 W/m2
03:19 46.6 °F 46.2 °F 30.4 in NW 2.2 mph 5.4 mph 99% 0 in 0 W/m2
03:25 46.4 °F 46 °F 30.4 in NW 4.5 mph 5.4 mph 99% 0 in 0 W/m2
03:30 46.2 °F 45.3 °F 30.4 in NW 3.1 mph 5.4 mph 97% 0 in 0 W/m2
03:36 46.2 °F 45.3 °F 30.4 in NNW 0.7 mph 5.4 mph 97% 0 in 0 W/m2
03:41 46 °F 45.1 °F 30.4 in NW 3.1 mph 5.4 mph 97% 0 in 0 W/m2
03:58 45.9 °F 45.1 °F 30.4 in NNW 4.5 mph 6 mph 97% 0 in 0 W/m2
04:03 45.7 °F 45 °F 30.4 in NNW 3.1 mph 6 mph 97% 0 in 0 W/m2
04:08 45.5 °F 44.8 °F 30.4 in NNW 4.5 mph 6.9 mph 97% 0 in 0 W/m2
04:14 45.5 °F 44.8 °F 30.4 in NW 3.1 mph 6.9 mph 97% 0 in 0 W/m2
04:19 45.3 °F 44.4 °F 30.4 in Calm   6 mph 97% 0 in 0 W/m2
04:24 45.1 °F 44.2 °F 30.4 in NNW 3.8 mph 6 mph 97% 0 in 0 W/m2
04:29 45.1 °F 44.2 °F 30.4 in NNW 3.1 mph 6 mph 97% 0 in 0 W/m2
04:34 45.1 °F 44.2 °F 30.4 in NNW 4.5 mph 6 mph 97% 0 in 0 W/m2
04:39 45 °F 44.2 °F 30.4 in NNW 3.1 mph 6 mph 97% 0 in 0 W/m2
04:44 45 °F 44.2 °F 30.4 in North 3.1 mph 6.9 mph 97% 0 in 0 W/m2
04:49 44.8 °F 44.1 °F 30.4 in NNW 2.2 mph 6.9 mph 97% 0 in 0 W/m2
04:54 44.6 °F 43.9 °F 30.4 in NW 4.5 mph 6.9 mph 97% 0 in 0 W/m2
04:59 44.6 °F 43.9 °F 30.4 in NW 4.5 mph 6.9 mph 97% 0 in 0 W/m2
05:04 44.2 °F 43.7 °F 30.4 in NNW 3.8 mph 7.6 mph 98% 0 in 0 W/m2
05:09 44.1 °F 43.5 °F 30.4 in NNW 2.2 mph 7.6 mph 98% 0 in 0 W/m2
05:14 44.1 °F 43.5 °F 30.4 in NW 2.2 mph 6 mph 98% 0 in 0 W/m2
05:19 44.2 °F 43.7 °F 30.4 in NW 3.8 mph 6.9 mph 98% 0 in 0 W/m2
05:20 44.2 °F 43.7 °F 30.4 in NNW 1.6 mph 6.9 mph 98% 0 in 0 W/m2
05:25 44.4 °F 43.9 °F 30.4 in Calm   6.9 mph 98% 0 in 0 W/m2
05:30 44.6 °F 43.9 °F 30.4 in Calm   3.8 mph 97% 0 in 0 W/m2
05:36 44.8 °F 44.1 °F 30.4 in NW 2.2 mph 4.5 mph 97% 0 in 0 W/m2
05:41 45 °F 44.2 °F 30.4 in NNW 3.1 mph 5.4 mph 97% 0 in 0 W/m2
05:46 45 °F 44.2 °F 30.4 in NNW 2.2 mph 5.4 mph 97% 0 in 0 W/m2
05:51 45.1 °F 44.2 °F 30.4 in NW 3.1 mph 6 mph 97% 0 in 0 W/m2
05:56 45.1 °F 44.2 °F 30.4 in Calm   6 mph 97% 0 in 0 W/m2
06:01 45.1 °F 44.2 °F 30.4 in NNW 2.2 mph 4.5 mph 97% 0 in 0 W/m2
06:06 45.1 °F 44.2 °F 30.4 in NNW 3.8 mph 6.9 mph 97% 0 in 0 W/m2
06:11 45.3 °F 44.4 °F 30.4 in NNW 3.1 mph 6.9 mph 97% 0 in 0 W/m2
06:16 45.3 °F 44.4 °F 30.4 in NNW 4.5 mph 6.9 mph 97% 0 in 0 W/m2
06:21 45.1 °F 44.2 °F 30.4 in NNW 3.8 mph 7.6 mph 97% 0 in 0 W/m2
06:26 45 °F 44.2 °F 30.4 in NNW 3.1 mph 7.6 mph 97% 0 in 0 W/m2
06:31 45 °F 44.2 °F 30.4 in NNW 1.6 mph 6 mph 97% 0 in 0 W/m2
06:36 44.8 °F 44.1 °F 30.4 in NNW 2.2 mph 5.4 mph 97% 0 in 0 W/m2
06:41 44.6 °F 43.9 °F 30.4 in NNW 3.1 mph 6 mph 97% 0 in 1 W/m2
06:46 44.6 °F 43.9 °F 30.4 in North 3.8 mph 6.9 mph 97% 0 in 4 W/m2
06:51 44.6 °F 43.9 °F 30.4 in NNW 2.2 mph 6.9 mph 97% 0 in 6 W/m2
06:56 44.6 °F 43.9 °F 30.4 in NNW 4.5 mph 6.9 mph 97% 0 in 10 W/m2
07:01 44.4 °F 43.9 °F 30.4 in NNW 2.2 mph 6.9 mph 98% 0 in 13 W/m2
07:06 44.6 °F 43.9 °F 30.4 in NNW 3.1 mph 6 mph 97% 0 in 17 W/m2
07:11 44.8 °F 44.1 °F 30.4 in NNW 4.5 mph 6.9 mph 97% 0 in 52 W/m2
07:16 45.1 °F 44.2 °F 30.4 in NNW 2.2 mph 6.9 mph 97% 0 in 58 W/m2
07:21 45.5 °F 44.8 °F 30.4 in NNW 2.2 mph 6.9 mph 97% 0 in 85 W/m2
07:26 46 °F 45.1 °F 30.4 in North 2.2 mph 6 mph 97% 0 in 95 W/m2
07:31 46.2 °F 45.3 °F 30.4 in NNW 3.8 mph 6.9 mph 97% 0 in 112 W/m2
07:36 46.6 °F 46.2 °F 30.4 in NNW 3.8 mph 6.9 mph 99% 0 in 127 W/m2
07:41 47.1 °F 46.9 °F 30.4 in NNW 3.8 mph 7.6 mph 99% 0 in 141 W/m2
07:46 47.5 °F 47.1 °F 30.4 in NNW 6 mph 8.3 mph 99% 0.01 in 157 W/m2
07:51 47.7 °F 47.5 °F 30.4 in NNW 2.2 mph 8.3 mph 99% 0.01 in 166 W/m2
07:56 48.2 °F 47.8 °F 30.4 in NNW 2.2 mph 8.3 mph 99% 0.01 in 183 W/m2
08:01 48.6 °F 48.4 °F 30.4 in NNW 5.4 mph 7.6 mph 99% 0.01 in 196 W/m2
08:06 48.9 °F 48.7 °F 30.4 in NNW 5.4 mph 7.6 mph 99% 0.01 in 209 W/m2
08:11 49.6 °F 49.1 °F 30.4 in NNW 3.1 mph 8.3 mph 98% 0.01 in 224 W/m2
08:16 50.2 °F 48.7 °F 30.4 in North 2.2 mph 8.3 mph 95% 0.01 in 209 W/m2
08:21 50.5 °F 48.9 °F 30.4 in NNW 3.1 mph 6.9 mph 94% 0.01 in 254 W/m2
08:26 50.7 °F 48.7 °F 30.4 in NNW 5.4 mph 8.3 mph 93% 0.01 in 271 W/m2
08:31 50.9 °F 48.4 °F 30.4 in NNW 5.4 mph 9.2 mph 91% 0.01 in 285 W/m2
08:36 51.6 °F 49.1 °F 30.4 in North 5.4 mph 9.2 mph 91% 0.01 in 298 W/m2
08:41 51.8 °F 48.7 °F 30.4 in North 3.1 mph 8.3 mph 89% 0.01 in 306 W/m2
08:46 52.3 °F 48.9 °F 30.4 in NW 3.8 mph 7.6 mph 88% 0 in 317 W/m2
08:51 52.9 °F 49.1 °F 30.4 in NNW 4.5 mph 10.7 mph 87% 0 in 324 W/m2
08:56 52.9 °F 48.6 °F 30.4 in NNW 5.4 mph 10.7 mph 85% 0 in 330 W/m2
09:01 53.4 °F 49.3 °F 30.4 in NNW 3.1 mph 9.2 mph 86% 0 in 338 W/m2
09:06 54.1 °F 49.1 °F 30.4 in NNW 6.9 mph 9.8 mph 83% 0 in 342 W/m2
09:11 54.1 °F 49.1 °F 30.4 in NNW 4.5 mph 9.8 mph 83% 0 in 344 W/m2
09:16 54.7 °F 49.8 °F 30.4 in NNW 3.1 mph 9.2 mph 84% 0 in 353 W/m2
09:21 55.2 °F 50.2 °F 30.4 in NW 5.4 mph 7.6 mph 83% 0 in 355 W/m2
09:26 55.6 °F 50.7 °F 30.4 in NW 4.5 mph 7.6 mph 84% 0 in 358 W/m2
09:31 55.9 °F 51.3 °F 30.4 in Calm   7.6 mph 84% 0 in 349 W/m2
09:36 56.5 °F 51.4 °F 30.4 in NNW 3.8 mph 7.6 mph 83% 0 in 134 W/m2
09:41 56.7 °F 51.6 °F 30.4 in NNW 3.8 mph 7.6 mph 83% 0 in 84 W/m2
09:46 57.4 °F 52.3 °F 30.4 in NNW 2.2 mph 7.6 mph 83% 0 in 75 W/m2
09:51 57.9 °F 52.2 °F 30.4 in NNW 4.5 mph 6 mph 81% 0 in 70 W/m2
09:56 58.8 °F 53.1 °F 30.4 in NW 3.1 mph 6 mph 81% 0 in 69 W/m2
10:01 58.8 °F 52.3 °F 30.4 in NW 2.2 mph 6 mph 79% 0 in 69 W/m2
10:06 59.4 °F 52.5 °F 30.4 in NW 3.1 mph 6 mph 78% 0 in 71 W/m2
10:11 60.1 °F 53.6 °F 30.4 in NW 3.1 mph 6 mph 79% 0 in 74 W/m2
10:16 60.3 °F 53.4 °F 30.4 in NW 3.1 mph 6 mph 78% 0 in 80 W/m2
10:21 60.8 °F 53.2 °F 30.4 in NW 3.1 mph 6 mph 76% 0 in 87 W/m2
10:26 61.5 °F 54.3 °F 30.4 in NW 0.7 mph 6 mph 77% 0 in 198 W/m2
10:31 62.4 °F 54.9 °F 30.4 in Calm   5.4 mph 76% 0 in 340 W/m2
10:36 64.2 °F 55.4 °F 30.4 in Calm   3.8 mph 73% 0 in 375 W/m2
10:41 65.1 °F 55.6 °F 30.3 in Calm     71% 0 in 397 W/m2
10:46 67.8 °F 57.7 °F 30.3 in Calm     70% 0 in 414 W/m2
10:51 68.5 °F 56.8 °F 30.3 in Calm     66% 0 in 433 W/m2
10:56 69.6 °F 56.8 °F 30.3 in SE 3.1 mph 4.5 mph 64% 0 in 430 W/m2
11:01 68.2 °F 55.9 °F 30.3 in Calm   4.5 mph 65% 0 in 87 W/m2
11:06 66.7 °F 55.9 °F 30.3 in SSE 1.6 mph 6.9 mph 68% 0 in 129 W/m2
11:11 65.8 °F 55.8 °F 30.3 in SSE 1.6 mph 6.9 mph 70% 0 in 444 W/m2
11:16 65.3 °F 56.1 °F 30.3 in SSE 1.6 mph 5.4 mph 72% 0 in 118 W/m2
11:21 65.7 °F 56.8 °F 30.3 in Calm   5.4 mph 73% 0 in 463 W/m2
11:26 65.7 °F 55.9 °F 30.3 in ESE 1.6 mph 3.8 mph 71% 0 in 285 W/m2
11:31 65.3 °F 56.1 °F 30.3 in Calm   3.8 mph 72% 0 in 162 W/m2
11:36 65.7 °F 56.8 °F 30.3 in Calm   3.8 mph 73% 0 in 444 W/m2
11:41 66.6 °F 56.8 °F 30.3 in Calm   3.8 mph 71% 0 in 469 W/m2
11:46 68.4 °F 57.4 °F 30.3 in SE 2.2 mph 3.8 mph 68% 0 in 494 W/m2
11:51 67.6 °F 56.7 °F 30.3 in ESE 3.1 mph 4.5 mph 68% 0 in 176 W/m2
11:56 66.4 °F 55.9 °F 30.3 in Calm   4.5 mph 69% 0 in 431 W/m2
12:01 66.6 °F 56.5 °F 30.3 in SSE 2.2 mph 4.5 mph 70% 0 in 456 W/m2
12:06 68 °F 56.7 °F 30.3 in SE 2.2 mph 4.5 mph 67% 0 in 477 W/m2
12:11 67.1 °F 56.1 °F 30.3 in SSE 3.1 mph 6 mph 68% 0 in 150 W/m2
12:16 65.3 °F 55.2 °F 30.3 in South 2.2 mph 7.6 mph 70% 0 in 157 W/m2
12:21 65.1 °F 55.6 °F 30.3 in SSE 1.6 mph 7.6 mph 71% 0 in 136 W/m2
12:26 65.1 °F 55.6 °F 30.3 in Calm   4.5 mph 71% 0 in 529 W/m2
12:31 67.5 °F 57 °F 30.3 in SE 2.2 mph 5.4 mph 69% 0 in 505 W/m2
12:36 68.2 °F 56.5 °F 30.3 in SE 5.4 mph 6.9 mph 66% 0 in 482 W/m2
12:41 68.4 °F 56.7 °F 30.3 in SE 3.1 mph 6.9 mph 66% 0 in 531 W/m2
12:46 68.9 °F 56.1 °F 30.3 in ESE 3.1 mph 8.3 mph 64% 0 in 574 W/m2
12:51 69.4 °F 56.8 °F 30.3 in SE 3.8 mph 8.3 mph 64% 0 in 216 W/m2
12:56 68.2 °F 55.6 °F 30.3 in SSE 1.6 mph 6.9 mph 64% 0 in 146 W/m2
13:01 67.5 °F 56.1 °F 30.3 in SSE 3.1 mph 6.9 mph 67% 0 in 186 W/m2
13:06 67.3 °F 55.9 °F 30.3 in ESE 3.1 mph 5.4 mph 67% 0 in 443 W/m2
13:11 69.1 °F 56.8 °F 30.3 in East 4.5 mph 6 mph 65% 0 in 337 W/m2
13:16 70.2 °F 56.7 °F 30.3 in East 2.2 mph 6 mph 62% 0 in 283 W/m2
13:21 71.8 °F 56.7 °F 30.3 in ESE 3.1 mph 6 mph 59% 0 in 185 W/m2
13:26 72 °F 56.5 °F 30.3 in SE 3.1 mph 5.4 mph 58% 0 in 140 W/m2
13:31 71.2 °F 56.1 °F 30.3 in ESE 4.5 mph 7.6 mph 59% 0 in 290 W/m2
13:36 70.3 °F 56.7 °F 30.3 in ESE 3.1 mph 7.6 mph 62% 0 in 337 W/m2
13:41 70.7 °F 57 °F 30.3 in ESE 6 mph 8.3 mph 62% 0 in 317 W/m2
13:46 69.3 °F 56.7 °F 30.3 in ESE 3.1 mph 8.3 mph 64% 0 in 203 W/m2
13:51 68.5 °F 55.9 °F 30.3 in ESE 3.1 mph 7.6 mph 64% 0 in 113 W/m2
13:56 67.3 °F 55.9 °F 30.3 in ESE 3.8 mph 7.6 mph 67% 0 in 299 W/m2
14:01 66.9 °F 55.9 °F 30.3 in ESE 4.5 mph 6 mph 68% 0 in 147 W/m2
14:06 67.3 °F 57.2 °F 30.3 in ESE 3.1 mph 7.6 mph 70% 0 in 262 W/m2
14:11 68.9 °F 57 °F 30.3 in ESE 4.5 mph 8.3 mph 66% 0 in 204 W/m2
14:16 68.7 °F 56.5 °F 30.3 in ESE 3.8 mph 8.3 mph 65% 0 in 203 W/m2
14:21 68.5 °F 56.3 °F 30.3 in East 3.1 mph 8.3 mph 65% 0 in 199 W/m2
14:26 68.2 °F 56.5 °F 30.3 in East 5.4 mph 8.3 mph 66% 0 in 136 W/m2
14:31 67.6 °F 56.7 °F 30.2 in East 3.8 mph 8.3 mph 68% 0 in 170 W/m2
14:36 68.2 °F 56.5 °F 30.2 in East 3.8 mph 8.3 mph 66% 0 in 144 W/m2
14:41 66.9 °F 56.5 °F 30.2 in East 2.2 mph 7.6 mph 69% 0 in 104 W/m2
14:47 69.4 °F 57.9 °F 30.2 in ESE 1.6 mph 4.5 mph 67% 0 in 91 W/m2
14:52 71.1 °F 58.3 °F 30.2 in ESE 0.7 mph 4.5 mph 64% 0 in 83 W/m2
14:57 70.9 °F 57.7 °F 30.2 in ESE 2.2 mph 5.4 mph 63% 0 in 80 W/m2
15:02 71.1 °F 57.9 °F 30.2 in ESE 4.5 mph 6 mph 63% 0 in 83 W/m2
15:07 70.7 °F 57.6 °F 30.2 in Calm   6 mph 63% 0 in 109 W/m2
15:12 71.8 °F 57.6 °F 30.2 in ESE 3.1 mph 6 mph 61% 0 in 202 W/m2
15:17 72.3 °F 58.1 °F 30.2 in East 3.1 mph 5.4 mph 61% 0 in 229 W/m2
15:22 72.5 °F 58.3 °F 30.2 in East 3.8 mph 5.4 mph 61% 0 in 242 W/m2
15:27 71.8 °F 57.6 °F 30.2 in East 3.8 mph 6 mph 61% 0 in 205 W/m2
15:32 71.2 °F 57.6 °F 30.2 in East 3.1 mph 6 mph 62% 0 in 176 W/m2
15:37 71.1 °F 57.9 °F 30.2 in East 2.2 mph 5.4 mph 63% 0 in 160 W/m2
15:42 70.9 °F 57.2 °F 30.2 in East 3.8 mph 5.4 mph 62% 0 in 138 W/m2
15:47 70.5 °F 56.8 °F 30.2 in East 4.5 mph 7.6 mph 62% 0 in 136 W/m2
15:52 70.2 °F 56.7 °F 30.2 in East 3.1 mph 7.6 mph 62% 0 in 119 W/m2
15:57 70.3 °F 56.7 °F 30.2 in ENE 3.8 mph 7.6 mph 62% 0 in 112 W/m2
16:02 70.2 °F 56.1 °F 30.2 in ENE 3.8 mph 6.9 mph 61% 0 in 100 W/m2
16:07 70 °F 56.5 °F 30.2 in East 3.1 mph 6 mph 62% 0 in 87 W/m2
16:23 68.2 °F 55 °F 30.2 in East 5.4 mph 8.3 mph 63% 0 in 72 W/m2
16:28 67.8 °F 55.6 °F 30.2 in East 5.4 mph 9.2 mph 65% 0 in 69 W/m2
16:33 67.6 °F 55.9 °F 30.2 in East 5.4 mph 9.8 mph 66% 0 in 67 W/m2
16:38 67.3 °F 55.6 °F 30.2 in East 6 mph 9.8 mph 66% 0 in 51 W/m2
16:43 66.9 °F 55.6 °F 30.2 in ENE 2.2 mph 9.8 mph 67% 0 in 45 W/m2
16:48 66.4 °F 55.6 °F 30.2 in East 3.1 mph 9.2 mph 68% 0 in 34 W/m2
16:53 65.8 °F 55.8 °F 30.2 in East 3.1 mph 7.6 mph 70% 0 in 30 W/m2
16:58 65.5 °F 55.8 °F 30.2 in East 0.7 mph 7.6 mph 71% 0 in 27 W/m2
17:03 65.3 °F 55.8 °F 30.2 in Calm   5.4 mph 71% 0 in 20 W/m2
17:08 64.6 °F 55.4 °F 30.2 in Calm   3.1 mph 72% 0 in 17 W/m2
17:13 64.4 °F 55.9 °F 30.2 in Calm     74% 0 in 14 W/m2
17:18 64 °F 55.9 °F 30.2 in NE 1.6 mph 2.2 mph 75% 0 in 10 W/m2
17:23 63.3 °F 55.9 °F 30.2 in NE 2.2 mph 3.1 mph 77% 0 in 7 W/m2
17:28 62.4 °F 56.8 °F 30.2 in NE 5.4 mph 6.9 mph 82% 0 in 4 W/m2
17:33 62.2 °F 56.7 °F 30.2 in NE 3.1 mph 6.9 mph 82% 0 in 2 W/m2
17:38 62.1 °F 56.5 °F 30.2 in ENE 1.6 mph 6.9 mph 82% 0 in 1 W/m2
17:43 61.9 °F 56.3 °F 30.2 in Calm   5.4 mph 82% 0 in 0 W/m2
17:48 61.3 °F 56.1 °F 30.2 in Calm   3.1 mph 83% 0 in 0 W/m2
17:53 60.8 °F 55.6 °F 30.2 in Calm     83% 0 in 0 W/m2
17:58 60.3 °F 55.8 °F 30.2 in Calm     85% 0 in 0 W/m2
18:03 60.1 °F 55.9 °F 30.2 in Calm   1.6 mph 86% 0 in 0 W/m2
18:08 59.9 °F 55.9 °F 30.2 in Calm   1.6 mph 87% 0 in 0 W/m2
18:13 59.5 °F 55.8 °F 30.2 in Calm   0.7 mph 87% 0 in 0 W/m2
18:18 59.2 °F 55.2 °F 30.2 in Calm   0.7 mph 87% 0 in 0 W/m2
18:23 58.8 °F 55.2 °F 30.2 in Calm     88% 0 in 0 W/m2
18:28 58.3 °F 55 °F 30.2 in Calm     89% 0 in 0 W/m2
18:33 58.1 °F 55.2 °F 30.2 in Calm     90% 0 in 0 W/m2
18:38 57.7 °F 55 °F 30.2 in Calm     91% 0 in 0 W/m2
18:43 57.2 °F 54.7 °F 30.2 in Calm     91% 0 in 0 W/m2
18:48 57 °F 55 °F 30.2 in Calm     93% 0 in 0 W/m2
18:53 56.7 °F 54.7 °F 30.2 in Calm     93% 0 in 0 W/m2
18:58 56.5 °F 54.9 °F 30.2 in Calm   0.7 mph 94% 0 in 0 W/m2
19:03 56.3 °F 54.7 °F 30.2 in Calm   0.7 mph 94% 0 in 0 W/m2
19:08 56.5 °F 55 °F 30.2 in Calm     95% 0 in 0 W/m2
19:13 56.5 °F 55 °F 30.2 in Calm     95% 0 in 0 W/m2
19:18 56.3 °F 54.9 °F 30.2 in Calm     95% 0 in 0 W/m2
19:23 55.9 °F 54.5 °F 30.2 in Calm     95% 0 in 0 W/m2
19:28 55.6 °F 54.1 °F 30.2 in Calm     95% 0 in 0 W/m2
19:33 55.4 °F 54 °F 30.2 in Calm     95% 0 in 0 W/m2
19:38 55 °F 53.6 °F 30.2 in Calm     95% 0 in 0 W/m2
19:43 54.9 °F 53.4 °F 30.2 in Calm     95% 0 in 0 W/m2
19:48 54.7 °F 53.2 °F 30.2 in Calm     95% 0 in 0 W/m2
19:53 54.3 °F 52.9 °F 30.2 in Calm     95% 0 in 0 W/m2
19:58 54.1 °F 52.7 °F 30.2 in Calm     95% 0 in 0 W/m2
20:03 54 °F 52.5 °F 30.2 in Calm     95% 0 in 0 W/m2
20:08 53.8 °F 52.3 °F 30.2 in Calm     95% 0 in 0 W/m2
20:13 53.6 °F 52.2 °F 30.2 in Calm     95% 0 in 0 W/m2
20:18 53.2 °F 52.2 °F 30.2 in Calm     96% 0 in 0 W/m2
20:23 53.2 °F 52.3 °F 30.2 in Calm     97% 0 in 0 W/m2
20:28 53.1 °F 52.2 °F 30.2 in Calm     97% 0 in 0 W/m2
20:33 53.1 °F 52.2 °F 30.2 in Calm     97% 0 in 0 W/m2
20:38 52.9 °F 52.2 °F 30.2 in Calm     97% 0 in 0 W/m2
20:43 52.9 °F 52.3 °F 30.2 in Calm     98% 0 in 0 W/m2
20:48 52.7 °F 52.2 °F 30.2 in Calm     98% 0 in 0 W/m2
20:53 52.5 °F 52 °F 30.2 in Calm     98% 0 in 0 W/m2
20:58 52.5 °F 52 °F 30.2 in Calm     98% 0 in 0 W/m2
21:03 52.3 °F 51.8 °F 30.2 in Calm     98% 0 in 0 W/m2
21:08 52.2 °F 51.6 °F 30.2 in Calm     98% 0 in 0 W/m2
21:13 52.2 °F 51.6 °F 30.2 in Calm     98% 0 in 0 W/m2
21:18 52.2 °F 51.6 °F 30.2 in Calm     98% 0 in 0 W/m2
21:23 52.2 °F 51.6 °F 30.2 in Calm     98% 0 in 0 W/m2
21:28 51.8 °F 51.3 °F 30.2 in Calm     98% 0 in 0 W/m2
21:33 51.8 °F 51.3 °F 30.2 in Calm     98% 0 in 0 W/m2
21:38 51.6 °F 51.4 °F 30.2 in Calm     99% 0 in 0 W/m2
21:43 51.4 °F 51.3 °F 30.2 in Calm     99% 0 in 0 W/m2
21:48 51.3 °F 51.1 °F 30.2 in Calm     99% 0 in 0 W/m2
21:53 51.1 °F 50.7 °F 30.2 in Calm     99% 0 in 0 W/m2
21:58 51.1 °F 50.7 °F 30.2 in Calm     99% 0 in 0 W/m2
22:03 50.9 °F 50.5 °F 30.2 in Calm     99% 0 in 0 W/m2
22:08 50.9 °F 50.5 °F 30.2 in Calm   0.7 mph 99% 0 in 0 W/m2
22:13 50.7 °F 50.5 °F 30.2 in Calm   0.7 mph 99% 0 in 0 W/m2
22:18 50.5 °F 50.4 °F 30.2 in Calm     99% 0 in 0 W/m2
22:23 50.5 °F 50.4 °F 30.2 in Calm     99% 0 in 0 W/m2
22:28 50.5 °F 50.4 °F 30.2 in Calm     99% 0 in 0 W/m2
22:33 50.2 °F 49.8 °F 30.2 in Calm     99% 0 in 0 W/m2
22:38 50.2 °F 49.8 °F 30.2 in Calm     99% 0 in 0 W/m2
22:43 50 °F 49.6 °F 30.2 in Calm     99% 0 in 0 W/m2
22:48 49.8 °F 49.6 °F 30.2 in Calm     99% 0 in 0 W/m2
22:53 49.8 °F 49.6 °F 30.2 in Calm     99% 0 in 0 W/m2
22:58 49.8 °F 49.6 °F 30.2 in Calm     99% 0 in 0 W/m2
23:03 49.8 °F 49.6 °F 30.2 in Calm     99% 0 in 0 W/m2
23:08 49.8 °F 49.6 °F 30.2 in Calm     99% 0 in 0 W/m2
23:13 49.6 °F 49.5 °F 30.2 in Calm     99% 0 in 0 W/m2
23:18 49.6 °F 49.5 °F 30.2 in Calm     99% 0 in 0 W/m2
23:23 49.6 °F 49.5 °F 30.2 in Calm     99% 0 in 0 W/m2
23:41 49.8 °F 49.6 °F 30.1 in Calm     99% 0 in 0 W/m2
23:46 50 °F 49.6 °F 30.1 in Calm     99% 0 in 0 W/m2
23:51 50 °F 49.6 °F 30.1 in Calm     99% 0 in 0 W/m2
23:56 50 °F 49.6 °F 30.1 in Calm     99% 0 in 0 W/m2
Northern Hawkes Bay. New Zealand Historic Data
Compliments of Weather Underground - 2.25 mb